sensor_id;sensor_type;location;lat;lon;timestamp;temperature;humidity
3035;DHT22;1527;48.836;9.172;2022-09-30T00:00:29;11.20;99.90
3035;DHT22;1527;48.836;9.172;2022-09-30T00:02:59;11.20;99.90
3035;DHT22;1527;48.836;9.172;2022-09-30T00:05:28;11.20;99.90
3035;DHT22;1527;48.836;9.172;2022-09-30T00:07:57;11.30;99.90
3035;DHT22;1527;48.836;9.172;2022-09-30T00:10:26;11.20;99.90
3035;DHT22;1527;48.836;9.172;2022-09-30T00:12:55;11.30;99.90
3035;DHT22;1527;48.836;9.172;2022-09-30T00:15:25;11.20;99.90
3035;DHT22;1527;48.836;9.172;2022-09-30T00:17:54;11.20;99.90
3035;DHT22;1527;48.836;9.172;2022-09-30T00:20:25;11.20;99.90
3035;DHT22;1527;48.836;9.172;2022-09-30T00:22:54;11.20;99.90
3035;DHT22;1527;48.836;9.172;2022-09-30T00:25:22;11.20;99.90
3035;DHT22;1527;48.836;9.172;2022-09-30T00:27:51;11.20;99.90
3035;DHT22;1527;48.836;9.172;2022-09-30T00:30:22;11.20;99.90
3035;DHT22;1527;48.836;9.172;2022-09-30T00:32:51;11.10;99.90
3035;DHT22;1527;48.836;9.172;2022-09-30T00:35:20;11.10;99.90
3035;DHT22;1527;48.836;9.172;2022-09-30T00:37:51;11.10;99.90
3035;DHT22;1527;48.836;9.172;2022-09-30T00:40:21;11.10;99.90
3035;DHT22;1527;48.836;9.172;2022-09-30T00:42:52;11.20;99.90
3035;DHT22;1527;48.836;9.172;2022-09-30T00:45:21;11.20;99.90
3035;DHT22;1527;48.836;9.172;2022-09-30T00:47:52;11.20;99.90
3035;DHT22;1527;48.836;9.172;2022-09-30T00:50:32;11.20;99.90
3035;DHT22;1527;48.836;9.172;2022-09-30T00:53:09;11.30;99.90
3035;DHT22;1527;48.836;9.172;2022-09-30T00:55:46;11.30;99.90
3035;DHT22;1527;48.836;9.172;2022-09-30T00:58:22;11.40;99.90
3035;DHT22;1527;48.836;9.172;2022-09-30T01:00:58;11.40;99.90
3035;DHT22;1527;48.836;9.172;2022-09-30T01:03:29;11.40;99.90
3035;DHT22;1527;48.836;9.172;2022-09-30T01:05:59;11.40;99.90
3035;DHT22;1527;48.836;9.172;2022-09-30T01:08:34;11.40;99.90
3035;DHT22;1527;48.836;9.172;2022-09-30T01:11:04;11.40;99.90
3035;DHT22;1527;48.836;9.172;2022-09-30T01:13:36;11.40;99.90
3035;DHT22;1527;48.836;9.172;2022-09-30T01:16:21;11.40;99.90
3035;DHT22;1527;48.836;9.172;2022-09-30T01:19:15;11.40;99.90
3035;DHT22;1527;48.836;9.172;2022-09-30T01:22:05;11.30;99.90
3035;DHT22;1527;48.836;9.172;2022-09-30T01:28:37;11.30;99.90
3035;DHT22;1527;48.836;9.172;2022-09-30T01:31:42;11.30;99.90
3035;DHT22;1527;48.836;9.172;2022-09-30T01:34:26;11.40;99.90
3035;DHT22;1527;48.836;9.172;2022-09-30T01:37:07;11.40;99.90
3035;DHT22;1527;48.836;9.172;2022-09-30T01:39:51;11.40;99.90
3035;DHT22;1527;48.836;9.172;2022-09-30T01:42:35;11.40;99.90
3035;DHT22;1527;48.836;9.172;2022-09-30T01:45:12;11.40;99.90
3035;DHT22;1527;48.836;9.172;2022-09-30T01:47:49;11.40;99.90
3035;DHT22;1527;48.836;9.172;2022-09-30T01:50:22;11.40;99.90
3035;DHT22;1527;48.836;9.172;2022-09-30T01:52:57;11.40;99.90
3035;DHT22;1527;48.836;9.172;2022-09-30T01:55:36;11.30;99.90
3035;DHT22;1527;48.836;9.172;2022-09-30T01:58:10;11.40;99.90
3035;DHT22;1527;48.836;9.172;2022-09-30T02:00:47;11.40;99.90
3035;DHT22;1527;48.836;9.172;2022-09-30T02:03:23;11.40;99.90
3035;DHT22;1527;48.836;9.172;2022-09-30T02:06:00;11.40;99.90
3035;DHT22;1527;48.836;9.172;2022-09-30T02:08:37;11.40;99.90
3035;DHT22;1527;48.836;9.172;2022-09-30T02:11:11;11.40;99.90
3035;DHT22;1527;48.836;9.172;2022-09-30T02:13:44;11.30;99.90
3035;DHT22;1527;48.836;9.172;2022-09-30T02:16:21;11.40;99.90
3035;DHT22;1527;48.836;9.172;2022-09-30T02:18:56;11.40;99.90
3035;DHT22;1527;48.836;9.172;2022-09-30T02:21:32;11.40;99.90
3035;DHT22;1527;48.836;9.172;2022-09-30T02:24:08;11.40;99.90
3035;DHT22;1527;48.836;9.172;2022-09-30T02:26:44;11.40;99.90
3035;DHT22;1527;48.836;9.172;2022-09-30T02:29:17;11.40;99.90
3035;DHT22;1527;48.836;9.172;2022-09-30T02:31:51;11.30;99.90
3035;DHT22;1527;48.836;9.172;2022-09-30T02:34:26;11.30;99.90
3035;DHT22;1527;48.836;9.172;2022-09-30T02:37:04;11.30;99.90
3035;DHT22;1527;48.836;9.172;2022-09-30T02:39:40;11.30;99.90
3035;DHT22;1527;48.836;9.172;2022-09-30T02:42:17;11.30;99.90
3035;DHT22;1527;48.836;9.172;2022-09-30T02:44:48;11.40;99.90
3035;DHT22;1527;48.836;9.172;2022-09-30T02:47:25;11.40;99.90
3035;DHT22;1527;48.836;9.172;2022-09-30T02:50:02;11.40;99.90
3035;DHT22;1527;48.836;9.172;2022-09-30T02:52:43;11.40;99.90
3035;DHT22;1527;48.836;9.172;2022-09-30T02:55:25;11.30;99.90
3035;DHT22;1527;48.836;9.172;2022-09-30T02:58:00;11.30;99.90
3035;DHT22;1527;48.836;9.172;2022-09-30T03:00:33;11.20;99.90
3035;DHT22;1527;48.836;9.172;2022-09-30T03:03:06;11.20;99.90
3035;DHT22;1527;48.836;9.172;2022-09-30T03:05:39;11.20;99.90
3035;DHT22;1527;48.836;9.172;2022-09-30T03:08:09;11.20;99.90
3035;DHT22;1527;48.836;9.172;2022-09-30T03:10:39;11.20;99.90
3035;DHT22;1527;48.836;9.172;2022-09-30T03:13:32;11.20;99.90
3035;DHT22;1527;48.836;9.172;2022-09-30T03:16:20;11.20;99.90
3035;DHT22;1527;48.836;9.172;2022-09-30T03:19:03;11.20;99.90
3035;DHT22;1527;48.836;9.172;2022-09-30T03:21:53;11.20;99.90
3035;DHT22;1527;48.836;9.172;2022-09-30T03:24:46;11.20;99.90
3035;DHT22;1527;48.836;9.172;2022-09-30T03:27:46;11.10;99.90
3035;DHT22;1527;48.836;9.172;2022-09-30T03:30:23;11.10;99.90
3035;DHT22;1527;48.836;9.172;2022-09-30T03:33:03;11.10;99.90
3035;DHT22;1527;48.836;9.172;2022-09-30T03:35:42;11.10;99.90
3035;DHT22;1527;48.836;9.172;2022-09-30T03:38:24;11.00;99.90
3035;DHT22;1527;48.836;9.172;2022-09-30T03:41:05;11.10;99.90
3035;DHT22;1527;48.836;9.172;2022-09-30T03:43:42;11.10;99.90
3035;DHT22;1527;48.836;9.172;2022-09-30T03:46:20;11.10;99.90
3035;DHT22;1527;48.836;9.172;2022-09-30T03:48:53;11.00;99.90
3035;DHT22;1527;48.836;9.172;2022-09-30T03:51:23;11.00;99.90
3035;DHT22;1527;48.836;9.172;2022-09-30T03:53:55;10.90;99.90
3035;DHT22;1527;48.836;9.172;2022-09-30T03:56:27;10.80;99.90
3035;DHT22;1527;48.836;9.172;2022-09-30T03:58:58;10.80;99.90
3035;DHT22;1527;48.836;9.172;2022-09-30T04:01:27;10.70;99.90
3035;DHT22;1527;48.836;9.172;2022-09-30T04:03:56;10.70;99.90
3035;DHT22;1527;48.836;9.172;2022-09-30T04:06:31;10.60;99.90
3035;DHT22;1527;48.836;9.172;2022-09-30T04:09:13;10.60;99.90
3035;DHT22;1527;48.836;9.172;2022-09-30T04:11:42;10.60;99.90
3035;DHT22;1527;48.836;9.172;2022-09-30T04:14:11;10.60;99.90
3035;DHT22;1527;48.836;9.172;2022-09-30T04:16:40;10.60;99.90
3035;DHT22;1527;48.836;9.172;2022-09-30T04:19:10;10.60;99.90
3035;DHT22;1527;48.836;9.172;2022-09-30T04:21:39;10.60;99.90
3035;DHT22;1527;48.836;9.172;2022-09-30T04:24:08;10.60;99.90
3035;DHT22;1527;48.836;9.172;2022-09-30T04:26:38;10.60;99.90
3035;DHT22;1527;48.836;9.172;2022-09-30T04:29:07;10.60;99.90
3035;DHT22;1527;48.836;9.172;2022-09-30T04:31:36;10.60;99.90
3035;DHT22;1527;48.836;9.172;2022-09-30T04:34:06;10.50;99.90
3035;DHT22;1527;48.836;9.172;2022-09-30T04:36:37;10.50;99.90
3035;DHT22;1527;48.836;9.172;2022-09-30T04:39:06;10.50;99.90
3035;DHT22;1527;48.836;9.172;2022-09-30T04:41:35;10.40;99.90
3035;DHT22;1527;48.836;9.172;2022-09-30T04:44:06;10.40;99.90
3035;DHT22;1527;48.836;9.172;2022-09-30T04:46:35;10.50;99.90
3035;DHT22;1527;48.836;9.172;2022-09-30T04:49:05;10.50;99.90
3035;DHT22;1527;48.836;9.172;2022-09-30T04:51:36;10.40;99.90
3035;DHT22;1527;48.836;9.172;2022-09-30T04:54:10;10.40;99.90
3035;DHT22;1527;48.836;9.172;2022-09-30T04:56:40;10.30;99.90
3035;DHT22;1527;48.836;9.172;2022-09-30T04:59:11;10.30;99.90
3035;DHT22;1527;48.836;9.172;2022-09-30T05:01:40;10.20;99.90
3035;DHT22;1527;48.836;9.172;2022-09-30T05:04:11;10.20;99.90
3035;DHT22;1527;48.836;9.172;2022-09-30T05:06:40;10.20;99.90
3035;DHT22;1527;48.836;9.172;2022-09-30T05:09:09;10.20;99.90
3035;DHT22;1527;48.836;9.172;2022-09-30T05:11:38;10.10;99.90
3035;DHT22;1527;48.836;9.172;2022-09-30T05:14:10;10.10;99.90
3035;DHT22;1527;48.836;9.172;2022-09-30T05:16:39;10.10;99.90
3035;DHT22;1527;48.836;9.172;2022-09-30T05:19:08;10.20;99.90
3035;DHT22;1527;48.836;9.172;2022-09-30T05:21:37;10.20;99.90
3035;DHT22;1527;48.836;9.172;2022-09-30T05:24:07;10.20;99.90
3035;DHT22;1527;48.836;9.172;2022-09-30T05:26:36;10.20;99.90
3035;DHT22;1527;48.836;9.172;2022-09-30T05:29:08;10.10;99.90
3035;DHT22;1527;48.836;9.172;2022-09-30T05:31:38;10.20;99.90
3035;DHT22;1527;48.836;9.172;2022-09-30T05:34:09;10.20;99.90
3035;DHT22;1527;48.836;9.172;2022-09-30T05:36:38;10.20;99.90
3035;DHT22;1527;48.836;9.172;2022-09-30T05:39:07;10.10;99.90
3035;DHT22;1527;48.836;9.172;2022-09-30T05:41:36;10.10;99.90
3035;DHT22;1527;48.836;9.172;2022-09-30T05:44:05;10.00;99.90
3035;DHT22;1527;48.836;9.172;2022-09-30T05:46:40;10.00;99.90
3035;DHT22;1527;48.836;9.172;2022-09-30T05:49:10;10.00;99.90
3035;DHT22;1527;48.836;9.172;2022-09-30T05:51:39;10.10;99.90
3035;DHT22;1527;48.836;9.172;2022-09-30T05:54:08;10.20;99.90
3035;DHT22;1527;48.836;9.172;2022-09-30T05:56:40;10.30;99.90
3035;DHT22;1527;48.836;9.172;2022-09-30T05:59:10;10.50;99.90
3035;DHT22;1527;48.836;9.172;2022-09-30T06:01:41;10.60;99.90
3035;DHT22;1527;48.836;9.172;2022-09-30T06:04:10;10.70;99.90
3035;DHT22;1527;48.836;9.172;2022-09-30T06:06:39;10.90;99.90
3035;DHT22;1527;48.836;9.172;2022-09-30T06:09:09;11.00;99.90
3035;DHT22;1527;48.836;9.172;2022-09-30T06:11:38;11.20;99.90
3035;DHT22;1527;48.836;9.172;2022-09-30T06:14:09;11.30;99.90
3035;DHT22;1527;48.836;9.172;2022-09-30T06:16:38;11.40;99.90
3035;DHT22;1527;48.836;9.172;2022-09-30T06:19:11;11.50;99.90
3035;DHT22;1527;48.836;9.172;2022-09-30T06:21:43;11.60;99.90
3035;DHT22;1527;48.836;9.172;2022-09-30T06:24:15;11.60;99.90
3035;DHT22;1527;48.836;9.172;2022-09-30T06:26:44;11.70;99.90
3035;DHT22;1527;48.836;9.172;2022-09-30T06:29:13;11.70;99.90
3035;DHT22;1527;48.836;9.172;2022-09-30T06:31:44;11.70;99.90
3035;DHT22;1527;48.836;9.172;2022-09-30T06:34:15;11.70;99.90
3035;DHT22;1527;48.836;9.172;2022-09-30T06:36:44;11.80;99.90
3035;DHT22;1527;48.836;9.172;2022-09-30T06:39:13;11.80;99.90
3035;DHT22;1527;48.836;9.172;2022-09-30T06:41:42;11.70;99.90
3035;DHT22;1527;48.836;9.172;2022-09-30T06:44:24;11.70;99.90
3035;DHT22;1527;48.836;9.172;2022-09-30T06:46:53;11.70;99.90
3035;DHT22;1527;48.836;9.172;2022-09-30T06:49:23;11.60;99.90
3035;DHT22;1527;48.836;9.172;2022-09-30T06:51:57;11.60;99.90
3035;DHT22;1527;48.836;9.172;2022-09-30T06:54:27;11.50;99.90
3035;DHT22;1527;48.836;9.172;2022-09-30T06:56:56;11.50;99.90
3035;DHT22;1527;48.836;9.172;2022-09-30T06:59:25;11.50;99.90
3035;DHT22;1527;48.836;9.172;2022-09-30T07:01:54;11.40;99.90
3035;DHT22;1527;48.836;9.172;2022-09-30T07:04:25;11.20;99.90
3035;DHT22;1527;48.836;9.172;2022-09-30T07:06:55;11.20;99.90
3035;DHT22;1527;48.836;9.172;2022-09-30T07:09:24;11.10;99.90
3035;DHT22;1527;48.836;9.172;2022-09-30T07:11:53;11.00;99.90
3035;DHT22;1527;48.836;9.172;2022-09-30T07:14:22;11.00;99.90
3035;DHT22;1527;48.836;9.172;2022-09-30T07:16:52;11.00;99.90
3035;DHT22;1527;48.836;9.172;2022-09-30T07:19:21;11.00;99.90
3035;DHT22;1527;48.836;9.172;2022-09-30T07:21:51;11.00;99.90
3035;DHT22;1527;48.836;9.172;2022-09-30T07:24:20;10.80;99.90
3035;DHT22;1527;48.836;9.172;2022-09-30T07:26:49;10.80;99.90
3035;DHT22;1527;48.836;9.172;2022-09-30T07:29:18;10.80;99.90
3035;DHT22;1527;48.836;9.172;2022-09-30T07:31:47;10.80;99.90
3035;DHT22;1527;48.836;9.172;2022-09-30T07:34:17;10.70;99.90
3035;DHT22;1527;48.836;9.172;2022-09-30T07:36:46;10.70;99.90
3035;DHT22;1527;48.836;9.172;2022-09-30T07:39:17;10.60;99.90
3035;DHT22;1527;48.836;9.172;2022-09-30T07:41:46;10.60;99.90
3035;DHT22;1527;48.836;9.172;2022-09-30T07:44:15;10.60;99.90
3035;DHT22;1527;48.836;9.172;2022-09-30T07:46:44;10.70;99.90
3035;DHT22;1527;48.836;9.172;2022-09-30T07:49:16;10.70;99.90
3035;DHT22;1527;48.836;9.172;2022-09-30T07:51:53;10.80;99.90
3035;DHT22;1527;48.836;9.172;2022-09-30T07:54:26;10.80;99.90
3035;DHT22;1527;48.836;9.172;2022-09-30T07:56:57;10.90;99.90
3035;DHT22;1527;48.836;9.172;2022-09-30T07:59:42;11.00;99.90
3035;DHT22;1527;48.836;9.172;2022-09-30T08:02:15;11.10;99.90
3035;DHT22;1527;48.836;9.172;2022-09-30T08:04:47;11.20;99.90
3035;DHT22;1527;48.836;9.172;2022-09-30T08:07:16;11.30;99.90
3035;DHT22;1527;48.836;9.172;2022-09-30T08:09:47;11.30;99.90
3035;DHT22;1527;48.836;9.172;2022-09-30T08:12:16;11.40;99.90
3035;DHT22;1527;48.836;9.172;2022-09-30T08:14:45;11.50;99.90
3035;DHT22;1527;48.836;9.172;2022-09-30T08:17:14;11.60;99.90
3035;DHT22;1527;48.836;9.172;2022-09-30T08:19:43;11.60;99.90
3035;DHT22;1527;48.836;9.172;2022-09-30T08:22:13;11.60;99.90
3035;DHT22;1527;48.836;9.172;2022-09-30T08:24:43;11.70;99.90
3035;DHT22;1527;48.836;9.172;2022-09-30T08:27:13;11.70;99.90
3035;DHT22;1527;48.836;9.172;2022-09-30T08:29:42;11.70;99.90
3035;DHT22;1527;48.836;9.172;2022-09-30T08:32:31;11.60;99.90
3035;DHT22;1527;48.836;9.172;2022-09-30T08:35:00;11.60;99.90
3035;DHT22;1527;48.836;9.172;2022-09-30T08:37:30;11.60;99.90
3035;DHT22;1527;48.836;9.172;2022-09-30T08:39:59;11.50;99.90
3035;DHT22;1527;48.836;9.172;2022-09-30T08:42:54;11.60;99.90
3035;DHT22;1527;48.836;9.172;2022-09-30T08:45:39;11.60;99.90
3035;DHT22;1527;48.836;9.172;2022-09-30T08:48:25;11.70;99.90
3035;DHT22;1527;48.836;9.172;2022-09-30T08:51:10;11.80;99.90
3035;DHT22;1527;48.836;9.172;2022-09-30T08:53:52;11.80;99.90
3035;DHT22;1527;48.836;9.172;2022-09-30T08:56:25;11.90;99.90
3035;DHT22;1527;48.836;9.172;2022-09-30T08:59:00;12.00;99.90
3035;DHT22;1527;48.836;9.172;2022-09-30T09:01:34;12.10;99.90
3035;DHT22;1527;48.836;9.172;2022-09-30T09:04:06;12.10;99.90
3035;DHT22;1527;48.836;9.172;2022-09-30T09:06:40;12.20;99.90
3035;DHT22;1527;48.836;9.172;2022-09-30T09:09:32;12.30;99.90
3035;DHT22;1527;48.836;9.172;2022-09-30T09:12:20;12.40;99.90
3035;DHT22;1527;48.836;9.172;2022-09-30T09:15:16;12.50;99.90
3035;DHT22;1527;48.836;9.172;2022-09-30T09:18:01;12.50;99.90
3035;DHT22;1527;48.836;9.172;2022-09-30T09:20:56;12.60;99.90
3035;DHT22;1527;48.836;9.172;2022-09-30T09:23:29;12.60;99.90
3035;DHT22;1527;48.836;9.172;2022-09-30T09:26:02;12.60;99.90
3035;DHT22;1527;48.836;9.172;2022-09-30T09:28:35;12.60;99.90
3035;DHT22;1527;48.836;9.172;2022-09-30T09:31:12;12.60;99.90
3035;DHT22;1527;48.836;9.172;2022-09-30T09:33:44;12.70;99.90
3035;DHT22;1527;48.836;9.172;2022-09-30T09:36:23;12.70;99.90
3035;DHT22;1527;48.836;9.172;2022-09-30T09:39:14;12.70;99.90
3035;DHT22;1527;48.836;9.172;2022-09-30T09:41:57;12.70;99.90
3035;DHT22;1527;48.836;9.172;2022-09-30T09:44:35;12.80;99.90
3035;DHT22;1527;48.836;9.172;2022-09-30T09:47:10;12.80;99.90
3035;DHT22;1527;48.836;9.172;2022-09-30T09:49:44;12.90;99.90
3035;DHT22;1527;48.836;9.172;2022-09-30T09:52:39;13.00;99.90
3035;DHT22;1527;48.836;9.172;2022-09-30T09:55:13;13.00;99.90
3035;DHT22;1527;48.836;9.172;2022-09-30T09:57:44;13.00;99.90
3035;DHT22;1527;48.836;9.172;2022-09-30T10:00:22;13.20;99.90
3035;DHT22;1527;48.836;9.172;2022-09-30T10:03:13;13.20;99.90
3035;DHT22;1527;48.836;9.172;2022-09-30T10:05:59;13.30;99.90
3035;DHT22;1527;48.836;9.172;2022-09-30T10:08:32;13.40;99.90
3035;DHT22;1527;48.836;9.172;2022-09-30T10:11:04;13.40;99.90
3035;DHT22;1527;48.836;9.172;2022-09-30T10:13:42;13.50;99.90
3035;DHT22;1527;48.836;9.172;2022-09-30T10:16:36;13.60;99.90
3035;DHT22;1527;48.836;9.172;2022-09-30T10:19:17;13.70;99.90
3035;DHT22;1527;48.836;9.172;2022-09-30T10:21:48;13.80;99.90
3035;DHT22;1527;48.836;9.172;2022-09-30T10:24:27;13.80;99.90
3035;DHT22;1527;48.836;9.172;2022-09-30T10:26:58;13.90;99.90
3035;DHT22;1527;48.836;9.172;2022-09-30T10:29:29;13.90;99.90
3035;DHT22;1527;48.836;9.172;2022-09-30T10:32:00;14.00;99.90
3035;DHT22;1527;48.836;9.172;2022-09-30T10:34:34;14.10;99.90
3035;DHT22;1527;48.836;9.172;2022-09-30T10:37:08;14.20;99.90
3035;DHT22;1527;48.836;9.172;2022-09-30T10:39:43;14.30;99.90
3035;DHT22;1527;48.836;9.172;2022-09-30T10:42:21;14.30;99.90
3035;DHT22;1527;48.836;9.172;2022-09-30T10:44:55;14.50;99.90
3035;DHT22;1527;48.836;9.172;2022-09-30T10:47:26;14.60;99.90
3035;DHT22;1527;48.836;9.172;2022-09-30T10:50:06;14.70;99.90
3035;DHT22;1527;48.836;9.172;2022-09-30T10:52:40;14.80;99.90
3035;DHT22;1527;48.836;9.172;2022-09-30T10:55:26;14.90;99.90
3035;DHT22;1527;48.836;9.172;2022-09-30T10:58:19;14.90;99.90
3035;DHT22;1527;48.836;9.172;2022-09-30T11:00:54;15.00;99.90
3035;DHT22;1527;48.836;9.172;2022-09-30T11:03:31;15.00;99.90
3035;DHT22;1527;48.836;9.172;2022-09-30T11:06:05;15.00;99.90
3035;DHT22;1527;48.836;9.172;2022-09-30T11:08:38;15.10;99.90
3035;DHT22;1527;48.836;9.172;2022-09-30T11:11:14;15.20;99.90
3035;DHT22;1527;48.836;9.172;2022-09-30T11:13:49;15.30;99.90
3035;DHT22;1527;48.836;9.172;2022-09-30T11:16:27;15.30;99.90
3035;DHT22;1527;48.836;9.172;2022-09-30T11:19:03;15.50;99.90
3035;DHT22;1527;48.836;9.172;2022-09-30T11:21:42;15.70;99.90
3035;DHT22;1527;48.836;9.172;2022-09-30T11:24:20;15.50;99.90
3035;DHT22;1527;48.836;9.172;2022-09-30T11:27:00;15.70;99.90
3035;DHT22;1527;48.836;9.172;2022-09-30T11:29:46;15.70;99.90
3035;DHT22;1527;48.836;9.172;2022-09-30T11:32:31;15.80;99.90
3035;DHT22;1527;48.836;9.172;2022-09-30T11:35:22;15.90;99.90
3035;DHT22;1527;48.836;9.172;2022-09-30T11:38:14;15.90;99.90
3035;DHT22;1527;48.836;9.172;2022-09-30T11:40:55;15.90;99.90
3035;DHT22;1527;48.836;9.172;2022-09-30T11:43:37;15.90;99.90
3035;DHT22;1527;48.836;9.172;2022-09-30T11:46:31;15.90;99.90
3035;DHT22;1527;48.836;9.172;2022-09-30T11:49:34;16.00;99.90
3035;DHT22;1527;48.836;9.172;2022-09-30T11:52:16;16.10;99.90
3035;DHT22;1527;48.836;9.172;2022-09-30T11:55:02;16.20;99.90
3035;DHT22;1527;48.836;9.172;2022-09-30T11:57:47;16.20;99.90
3035;DHT22;1527;48.836;9.172;2022-09-30T12:00:21;16.40;99.90
3035;DHT22;1527;48.836;9.172;2022-09-30T12:02:52;16.40;99.90
3035;DHT22;1527;48.836;9.172;2022-09-30T12:05:26;16.50;99.90
3035;DHT22;1527;48.836;9.172;2022-09-30T12:08:03;16.40;99.90
3035;DHT22;1527;48.836;9.172;2022-09-30T12:10:42;16.40;99.90
3035;DHT22;1527;48.836;9.172;2022-09-30T12:13:17;16.50;99.90
3035;DHT22;1527;48.836;9.172;2022-09-30T12:15:50;16.60;99.90
3035;DHT22;1527;48.836;9.172;2022-09-30T12:18:24;16.70;99.90
3035;DHT22;1527;48.836;9.172;2022-09-30T12:20:58;16.70;99.90
3035;DHT22;1527;48.836;9.172;2022-09-30T12:23:32;16.50;99.90
3035;DHT22;1527;48.836;9.172;2022-09-30T12:26:06;16.60;99.90
3035;DHT22;1527;48.836;9.172;2022-09-30T12:28:39;16.60;99.90
3035;DHT22;1527;48.836;9.172;2022-09-30T12:31:46;16.50;99.90
3035;DHT22;1527;48.836;9.172;2022-09-30T12:34:44;16.60;99.90
3035;DHT22;1527;48.836;9.172;2022-09-30T12:37:34;16.70;99.90
3035;DHT22;1527;48.836;9.172;2022-09-30T12:40:29;16.70;99.90
3035;DHT22;1527;48.836;9.172;2022-09-30T12:43:40;16.70;99.90
3035;DHT22;1527;48.836;9.172;2022-09-30T12:46:32;16.60;99.90
3035;DHT22;1527;48.836;9.172;2022-09-30T12:49:15;16.50;99.90
3035;DHT22;1527;48.836;9.172;2022-09-30T12:51:51;16.50;99.90
3035;DHT22;1527;48.836;9.172;2022-09-30T12:54:25;16.40;99.90
3035;DHT22;1527;48.836;9.172;2022-09-30T12:56:58;16.40;99.90
3035;DHT22;1527;48.836;9.172;2022-09-30T12:59:37;16.60;99.90
3035;DHT22;1527;48.836;9.172;2022-09-30T13:02:26;16.60;99.90
3035;DHT22;1527;48.836;9.172;2022-09-30T13:05:30;16.60;99.90
3035;DHT22;1527;48.836;9.172;2022-09-30T13:08:40;16.70;99.90
3035;DHT22;1527;48.836;9.172;2022-09-30T13:11:34;16.90;99.90
3035;DHT22;1527;48.836;9.172;2022-09-30T13:14:20;16.80;99.90
3035;DHT22;1527;48.836;9.172;2022-09-30T13:20:49;16.80;99.90
3035;DHT22;1527;48.836;9.172;2022-09-30T13:23:39;16.80;99.90
3035;DHT22;1527;48.836;9.172;2022-09-30T13:26:40;16.70;99.90
3035;DHT22;1527;48.836;9.172;2022-09-30T13:29:34;16.80;99.90
3035;DHT22;1527;48.836;9.172;2022-09-30T13:32:09;16.80;99.90
3035;DHT22;1527;48.836;9.172;2022-09-30T13:34:55;16.80;99.90
3035;DHT22;1527;48.836;9.172;2022-09-30T13:37:42;16.90;99.90
3035;DHT22;1527;48.836;9.172;2022-09-30T13:40:19;17.00;99.90
3035;DHT22;1527;48.836;9.172;2022-09-30T13:43:14;17.10;99.90
3035;DHT22;1527;48.836;9.172;2022-09-30T13:45:46;17.20;99.90
3035;DHT22;1527;48.836;9.172;2022-09-30T13:48:21;17.20;99.90
3035;DHT22;1527;48.836;9.172;2022-09-30T13:50:57;17.10;99.90
3035;DHT22;1527;48.836;9.172;2022-09-30T13:53:29;17.00;99.90
3035;DHT22;1527;48.836;9.172;2022-09-30T13:56:06;17.00;99.90
3035;DHT22;1527;48.836;9.172;2022-09-30T13:59:00;17.10;99.90
3035;DHT22;1527;48.836;9.172;2022-09-30T14:02:13;17.10;99.90
3035;DHT22;1527;48.836;9.172;2022-09-30T14:05:19;17.20;99.90
3035;DHT22;1527;48.836;9.172;2022-09-30T14:08:30;17.30;99.90
3035;DHT22;1527;48.836;9.172;2022-09-30T14:11:22;17.30;99.90
3035;DHT22;1527;48.836;9.172;2022-09-30T14:14:23;17.20;99.90
3035;DHT22;1527;48.836;9.172;2022-09-30T14:17:29;17.30;99.90
3035;DHT22;1527;48.836;9.172;2022-09-30T14:20:18;17.40;99.90
3035;DHT22;1527;48.836;9.172;2022-09-30T14:23:12;17.40;99.90
3035;DHT22;1527;48.836;9.172;2022-09-30T14:25:51;17.50;99.90
3035;DHT22;1527;48.836;9.172;2022-09-30T14:28:29;17.50;99.90
3035;DHT22;1527;48.836;9.172;2022-09-30T14:31:01;17.50;99.90
3035;DHT22;1527;48.836;9.172;2022-09-30T14:33:42;17.40;99.90
3035;DHT22;1527;48.836;9.172;2022-09-30T14:36:17;17.50;99.90
3035;DHT22;1527;48.836;9.172;2022-09-30T14:38:52;17.40;99.90
3035;DHT22;1527;48.836;9.172;2022-09-30T14:41:25;17.50;99.90
3035;DHT22;1527;48.836;9.172;2022-09-30T14:43:58;17.50;99.90
3035;DHT22;1527;48.836;9.172;2022-09-30T14:46:37;17.40;99.90
3035;DHT22;1527;48.836;9.172;2022-09-30T14:49:12;17.40;99.90
3035;DHT22;1527;48.836;9.172;2022-09-30T14:51:45;17.40;99.90
3035;DHT22;1527;48.836;9.172;2022-09-30T14:54:18;17.30;99.90
3035;DHT22;1527;48.836;9.172;2022-09-30T14:56:49;17.40;99.90
3035;DHT22;1527;48.836;9.172;2022-09-30T14:59:23;17.40;99.90
3035;DHT22;1527;48.836;9.172;2022-09-30T15:01:57;17.50;99.90
3035;DHT22;1527;48.836;9.172;2022-09-30T15:04:28;17.40;99.90
3035;DHT22;1527;48.836;9.172;2022-09-30T15:07:00;17.50;99.90
3035;DHT22;1527;48.836;9.172;2022-09-30T15:09:33;17.50;99.90
3035;DHT22;1527;48.836;9.172;2022-09-30T15:12:05;17.60;99.90
3035;DHT22;1527;48.836;9.172;2022-09-30T15:14:45;17.60;99.90
3035;DHT22;1527;48.836;9.172;2022-09-30T15:17:18;17.70;99.90
3035;DHT22;1527;48.836;9.172;2022-09-30T15:19:52;17.70;99.90
3035;DHT22;1527;48.836;9.172;2022-09-30T15:22:24;17.70;99.90
3035;DHT22;1527;48.836;9.172;2022-09-30T15:24:57;17.80;99.90
3035;DHT22;1527;48.836;9.172;2022-09-30T15:27:29;17.60;99.90
3035;DHT22;1527;48.836;9.172;2022-09-30T15:30:01;17.50;99.90
3035;DHT22;1527;48.836;9.172;2022-09-30T15:32:33;17.50;99.90
3035;DHT22;1527;48.836;9.172;2022-09-30T15:35:04;17.30;99.90
3035;DHT22;1527;48.836;9.172;2022-09-30T15:37:37;17.20;99.90
3035;DHT22;1527;48.836;9.172;2022-09-30T15:40:14;17.10;99.90
3035;DHT22;1527;48.836;9.172;2022-09-30T15:43:03;17.20;99.90
3035;DHT22;1527;48.836;9.172;2022-09-30T15:45:34;17.20;99.90
3035;DHT22;1527;48.836;9.172;2022-09-30T15:48:18;17.10;99.90
3035;DHT22;1527;48.836;9.172;2022-09-30T15:51:26;17.10;99.90
3035;DHT22;1527;48.836;9.172;2022-09-30T15:53:58;17.20;99.90
3035;DHT22;1527;48.836;9.172;2022-09-30T15:56:34;17.10;99.90
3035;DHT22;1527;48.836;9.172;2022-09-30T15:59:04;17.00;99.90
3035;DHT22;1527;48.836;9.172;2022-09-30T16:01:36;17.00;99.90
3035;DHT22;1527;48.836;9.172;2022-09-30T16:04:08;16.90;99.90
3035;DHT22;1527;48.836;9.172;2022-09-30T16:06:44;16.80;99.90
3035;DHT22;1527;48.836;9.172;2022-09-30T16:09:21;16.80;99.90
3035;DHT22;1527;48.836;9.172;2022-09-30T16:12:01;16.80;99.90
3035;DHT22;1527;48.836;9.172;2022-09-30T16:14:34;16.80;99.90
3035;DHT22;1527;48.836;9.172;2022-09-30T16:17:16;16.80;99.90
3035;DHT22;1527;48.836;9.172;2022-09-30T16:19:50;16.80;99.90
3035;DHT22;1527;48.836;9.172;2022-09-30T16:22:35;16.80;99.90
3035;DHT22;1527;48.836;9.172;2022-09-30T16:25:21;16.80;99.90
3035;DHT22;1527;48.836;9.172;2022-09-30T16:27:56;16.90;99.90
3035;DHT22;1527;48.836;9.172;2022-09-30T16:30:28;16.80;99.90
3035;DHT22;1527;48.836;9.172;2022-09-30T16:33:02;16.80;99.90
3035;DHT22;1527;48.836;9.172;2022-09-30T16:35:33;16.90;99.90
3035;DHT22;1527;48.836;9.172;2022-09-30T16:38:04;16.80;99.90
3035;DHT22;1527;48.836;9.172;2022-09-30T16:40:34;16.80;99.90
3035;DHT22;1527;48.836;9.172;2022-09-30T16:43:06;16.80;99.90
3035;DHT22;1527;48.836;9.172;2022-09-30T16:45:41;16.80;99.90
3035;DHT22;1527;48.836;9.172;2022-09-30T16:48:14;16.70;99.90
3035;DHT22;1527;48.836;9.172;2022-09-30T16:50:49;16.70;99.90
3035;DHT22;1527;48.836;9.172;2022-09-30T16:53:24;16.60;99.90
3035;DHT22;1527;48.836;9.172;2022-09-30T16:55:53;16.60;99.90
3035;DHT22;1527;48.836;9.172;2022-09-30T16:58:24;16.60;99.90
3035;DHT22;1527;48.836;9.172;2022-09-30T17:00:57;16.50;99.90
3035;DHT22;1527;48.836;9.172;2022-09-30T17:03:31;16.40;99.90
3035;DHT22;1527;48.836;9.172;2022-09-30T17:06:00;16.40;99.90
3035;DHT22;1527;48.836;9.172;2022-09-30T17:08:37;16.30;99.90